Time;durP1;ratioP1;P1;durP2;ratioP2;P2;SDS_P1;SDS_P2;PMS_P1;PMS_P2;Temp;Humidity;BMP_temperature;BMP_pressure;BME280_temperature;BME280_humidity;BME280_pressure;Samples;Min_cycle;Max_cycle;Signal;HPM_P1;HPM_P2
2023/04/20 00:01:52;;;;;;;8.32;3.22;;;;;;;8.89;37.96;102182.06;5032871;28;20387;-68
2023/04/20 00:04:18;;;;;;;10.05;3.13;;;;;;;8.89;39.91;102182.06;5032823;28;20052;-67
2023/04/20 00:06:44;;;;;;;7.32;3.25;;;;;;;8.88;39.23;102177.66;5032817;28;20017;-66
2023/04/20 00:09:11;;;;;;;6.45;3.08;;;;;;;8.90;39.30;102179.47;5032815;28;20028;-67
2023/04/20 00:11:37;;;;;;;5.50;2.90;;;;;;;8.87;38.41;102171.47;5033023;28;20025;-66
2023/04/20 00:14:03;;;;;;;5.47;3.50;;;;;;;8.88;38.22;102168.00;5032348;28;20029;-66
2023/04/20 00:16:28;;;;;;;6.05;3.00;;;;;;;8.88;39.12;102168.00;5032637;28;20507;-68
2023/04/20 00:18:54;;;;;;;5.80;3.00;;;;;;;8.87;38.58;102157.41;5032603;28;20026;-66
2023/04/20 00:21:22;;;;;;;5.82;3.30;;;;;;;8.84;38.82;102146.72;5032770;28;20426;-67
2023/04/20 00:23:49;;;;;;;7.93;3.10;;;;;;;8.82;39.30;102144.03;5032751;28;20068;-67
2023/04/20 00:26:15;;;;;;;5.53;3.25;;;;;;;8.75;38.04;102140.25;5033088;28;20061;-66
2023/04/20 00:28:41;;;;;;;7.05;3.30;;;;;;;8.77;38.74;102138.56;5032804;28;20074;-65
2023/04/20 00:31:06;;;;;;;8.60;3.15;;;;;;;8.73;39.52;102128.75;5032673;28;20025;-66
2023/04/20 00:33:32;;;;;;;8.90;3.20;;;;;;;8.69;38.38;102125.94;5032771;28;20495;-66
2023/04/20 00:35:57;;;;;;;5.25;2.90;;;;;;;8.71;39.10;102127.81;5032717;28;20029;-65
2023/04/20 00:38:23;;;;;;;7.15;3.03;;;;;;;8.69;38.38;102121.59;5032600;28;20386;-67
2023/04/20 00:40:51;;;;;;;4.78;2.78;;;;;;;8.67;38.39;102125.88;5032577;28;20483;-65
2023/04/20 00:43:18;;;;;;;5.50;2.88;;;;;;;8.69;38.46;102118.03;5032757;28;20026;-66
2023/04/20 00:45:45;;;;;;;5.68;2.95;;;;;;;8.68;37.80;102118.88;5032594;28;20486;-65
2023/04/20 00:48:11;;;;;;;5.15;3.10;;;;;;;8.62;40.32;102118.66;5032613;28;20367;-65
2023/04/20 00:50:37;;;;;;;6.05;2.85;;;;;;;8.50;38.91;102103.25;5032473;28;20030;-67
2023/04/20 00:53:03;;;;;;;6.68;2.92;;;;;;;8.51;40.73;102107.69;5032686;28;20026;-65
2023/04/20 00:55:29;;;;;;;9.38;3.08;;;;;;;8.50;40.22;102105.88;5032603;28;20033;-66
2023/04/20 00:57:55;;;;;;;4.20;2.70;;;;;;;8.45;39.38;102096.91;5015069;28;20060;-66
2023/04/20 01:00:21;;;;;;;5.40;2.97;;;;;;;8.42;39.67;102083.63;5032596;28;20469;-66
2023/04/20 01:02:46;;;;;;;7.47;3.13;;;;;;;8.37;39.33;102083.44;5032761;28;20037;-66
2023/04/20 01:05:12;;;;;;;7.10;2.97;;;;;;;8.33;39.34;102077.94;5032487;28;20383;-66
2023/04/20 01:07:37;;;;;;;5.15;3.05;;;;;;;8.35;39.60;102071.94;5018299;28;20084;-65
2023/04/20 01:10:05;;;;;;;4.80;3.13;;;;;;;8.27;39.91;102068.97;5012735;28;20025;-66
2023/04/20 01:12:30;;;;;;;6.55;3.10;;;;;;;8.24;41.21;102073.22;5012676;28;20439;-67
2023/04/20 01:14:56;;;;;;;4.75;2.88;;;;;;;8.20;40.44;102071.31;5012291;28;20325;-66
2023/04/20 01:17:22;;;;;;;4.10;3.08;;;;;;;8.19;40.30;102059.88;4995227;28;20069;-67
2023/04/20 01:19:48;;;;;;;6.22;3.20;;;;;;;8.18;41.63;102054.53;5012385;28;20042;-66
2023/04/20 01:22:20;;;;;;;10.75;3.25;;;;;;;8.17;41.35;102058.00;5012913;28;20422;-67
2023/04/20 01:24:46;;;;;;;9.30;3.10;;;;;;;8.17;40.40;102058.00;5014549;28;20029;-66
2023/04/20 01:27:15;;;;;;;5.65;3.05;;;;;;;8.10;41.84;102046.34;5016269;28;20310;-66
2023/04/20 01:29:41;;;;;;;6.38;2.83;;;;;;;8.08;42.06;102047.13;5016059;28;20022;-67
2023/04/20 01:32:07;;;;;;;5.00;3.10;;;;;;;8.06;41.97;102046.16;4982412;28;20032;-65
2023/04/20 01:34:33;;;;;;;4.97;3.10;;;;;;;8.03;41.85;102046.94;5016006;28;20485;-67
2023/04/20 01:36:58;;;;;;;7.18;2.90;;;;;;;8.09;42.18;102041.00;5016056;28;20029;-66
2023/04/20 01:39:24;;;;;;;8.00;3.97;;;;;;;8.11;41.61;102036.72;5016087;28;20160;-67
2023/04/20 01:41:50;;;;;;;6.95;2.95;;;;;;;8.12;41.79;102028.88;5015981;28;20030;-67
2023/04/20 01:44:15;;;;;;;4.82;3.22;;;;;;;8.11;41.59;102034.09;5016037;28;20439;-65
2023/04/20 01:46:41;;;;;;;5.97;3.00;;;;;;;8.14;42.38;102023.69;5015706;28;20034;-68
2023/04/20 01:49:07;;;;;;;4.68;2.80;;;;;;;8.15;42.05;102023.72;4997894;28;20030;-66
2023/04/20 01:51:34;;;;;;;6.05;3.20;;;;;;;8.12;41.30;102017.44;5016158;28;20029;-67
2023/04/20 01:54:00;;;;;;;4.95;2.97;;;;;;;8.09;42.46;102014.69;4998207;28;20108;-67
2023/04/20 01:56:25;;;;;;;8.63;2.90;;;;;;;8.16;42.67;102008.81;5015923;28;20057;-68
2023/04/20 01:58:50;;;;;;;5.78;3.20;;;;;;;8.12;42.94;102005.16;5015585;28;20112;-66
2023/04/20 02:01:16;;;;;;;8.57;3.20;;;;;;;8.13;42.25;101998.16;5015520;28;20037;-67
2023/04/20 02:03:41;;;;;;;5.72;3.20;;;;;;;8.08;42.47;102007.63;4997934;28;20033;-67
2023/04/20 02:06:07;;;;;;;8.82;3.35;;;;;;;8.00;42.27;102000.31;5015512;28;20029;-67
2023/04/20 02:08:32;;;;;;;6.55;2.88;;;;;;;7.92;42.70;101996.50;5015411;28;20018;-67
2023/04/20 02:10:58;;;;;;;6.38;3.30;;;;;;;7.89;42.90;101993.75;5015300;28;20029;-67
2023/04/20 02:13:23;;;;;;;8.13;3.30;;;;;;;7.87;43.23;101986.63;5015586;28;20036;-65
2023/04/20 02:15:49;;;;;;;5.38;3.10;;;;;;;7.86;42.49;101988.34;5015049;28;20049;-66
2023/04/20 02:18:15;;;;;;;5.60;2.90;;;;;;;7.87;43.14;101989.25;5014754;28;20033;-66
2023/04/20 02:20:41;;;;;;;7.80;3.35;;;;;;;7.82;43.87;101977.63;5015287;28;20455;-67
2023/04/20 02:23:07;;;;;;;5.60;3.10;;;;;;;7.82;43.85;101969.75;5015152;28;20033;-67
2023/04/20 02:25:32;;;;;;;8.77;3.20;;;;;;;7.82;44.59;101961.84;5015113;28;20033;-67
2023/04/20 02:27:58;;;;;;;6.70;3.00;;;;;;;7.74;44.32;101967.69;5015060;28;20026;-67
2023/04/20 02:30:23;;;;;;;5.07;3.13;;;;;;;7.68;44.51;101971.84;5014998;28;20045;-67
2023/04/20 02:32:49;;;;;;;7.60;3.03;;;;;;;7.60;45.65;101968.00;5014817;28;20071;-67
2023/04/20 02:35:14;;;;;;;6.20;3.30;;;;;;;7.51;45.30;101969.41;5015058;28;20474;-67
2023/04/20 02:37:39;;;;;;;5.25;3.20;;;;;;;7.43;45.38;101968.19;5014452;28;20030;-67
2023/04/20 02:40:06;;;;;;;6.22;3.35;;;;;;;7.33;45.52;101963.38;5014722;28;20059;-66
2023/04/20 02:42:31;;;;;;;5.35;3.42;;;;;;;7.31;46.56;101967.66;5014824;28;20041;-65
2023/04/20 02:44:57;;;;;;;6.68;3.35;;;;;;;7.36;47.27;101958.25;5015320;28;20436;-66
2023/04/20 02:47:22;;;;;;;9.60;3.25;;;;;;;7.31;46.59;101954.53;5016736;28;20022;-66
2023/04/20 02:49:47;;;;;;;4.38;3.00;;;;;;;7.25;47.22;101952.53;5016044;28;20535;-67
2023/04/20 02:52:13;;;;;;;5.25;3.10;;;;;;;7.23;47.24;101950.69;5015234;28;20030;-67
2023/04/20 02:54:39;;;;;;;9.25;3.15;;;;;;;7.27;48.19;101944.72;4997131;28;20491;-65
2023/04/20 02:57:05;;;;;;;8.35;3.53;;;;;;;7.27;48.09;101947.34;5014618;28;20057;-65
2023/04/20 02:59:30;;;;;;;5.90;3.30;;;;;;;7.22;49.46;101946.25;5014324;28;20064;-65
2023/04/20 03:01:55;;;;;;;5.80;3.10;;;;;;;7.20;49.78;101948.84;4996822;28;20080;-64
2023/04/20 03:04:21;;;;;;;6.53;3.60;;;;;;;7.13;49.90;101948.50;5014717;28;20029;-66
2023/04/20 03:06:49;;;;;;;6.38;3.65;;;;;;;7.11;50.97;101932.69;5014399;28;20464;-64
2023/04/20 03:09:15;;;;;;;4.55;2.95;;;;;;;7.17;50.99;101932.94;5014309;28;20037;-65
2023/04/20 03:11:40;;;;;;;7.53;2.88;;;;;;;7.15;51.39;101929.34;5014465;28;20026;-66
2023/04/20 03:14:06;;;;;;;7.07;3.42;;;;;;;7.16;50.51;101928.50;5014488;28;20442;-66
2023/04/20 03:16:31;;;;;;;6.47;3.50;;;;;;;7.23;50.98;101925.28;5013667;28;20141;-63
2023/04/20 03:18:58;;;;;;;5.57;3.40;;;;;;;7.27;51.11;101923.69;5014002;28;20116;-65
2023/04/20 03:21:23;;;;;;;4.90;3.30;;;;;;;7.27;52.12;101923.69;5014014;28;20041;-65
2023/04/20 03:23:49;;;;;;;7.43;3.30;;;;;;;7.27;51.62;101924.56;5014240;28;20030;-64
2023/04/20 03:26:14;;;;;;;5.65;3.35;;;;;;;7.34;51.87;101909.97;5014091;28;20487;-66
2023/04/20 03:28:41;;;;;;;6.47;3.25;;;;;;;7.39;51.76;101924.19;5013926;28;20030;-66
2023/04/20 03:31:06;;;;;;;4.68;3.13;;;;;;;7.44;52.05;101917.38;5013653;28;20537;-66
2023/04/20 03:33:31;;;;;;;12.43;3.60;;;;;;;7.45;52.84;101919.19;4996354;28;20033;-65
2023/04/20 03:35:57;;;;;;;8.73;3.55;;;;;;;7.46;52.38;101917.47;5013818;28;20030;-65
2023/04/20 03:38:22;;;;;;;6.70;3.40;;;;;;;7.46;53.26;101910.47;5013983;28;20034;-67
2023/04/20 03:40:47;;;;;;;5.38;3.20;;;;;;;7.54;52.80;101908.16;5013892;28;20044;-65
2023/04/20 03:43:13;;;;;;;6.38;3.78;;;;;;;7.63;52.27;101899.72;5013790;28;20479;-66
2023/04/20 03:45:38;;;;;;;7.00;3.50;;;;;;;7.69;53.18;101894.69;5013695;28;20386;-65
2023/04/20 03:48:04;;;;;;;5.97;3.60;;;;;;;7.73;53.15;101891.34;4994899;28;20032;-66
2023/04/20 03:50:29;;;;;;;6.93;3.30;;;;;;;7.78;52.95;101897.69;4995957;28;20033;-66
2023/04/20 03:52:54;;;;;;;7.20;3.42;;;;;;;7.82;53.19;101886.44;5013621;28;20030;-65
2023/04/20 03:55:20;;;;;;;5.28;3.30;;;;;;;7.82;53.83;101890.81;5013471;28;20033;-67
2023/04/20 03:57:45;;;;;;;5.20;3.50;;;;;;;7.84;53.99;101886.53;5013491;28;20033;-66
2023/04/20 04:00:11;;;;;;;7.70;3.50;;;;;;;7.85;53.95;101894.47;5013313;28;20538;-66
2023/04/20 04:02:37;;;;;;;5.95;3.33;;;;;;;7.94;55.18;101896.53;5013244;28;20030;-64
2023/04/20 04:05:02;;;;;;;5.47;3.30;;;;;;;7.94;53.59;101886.91;5013323;28;20356;-67
2023/04/20 04:07:28;;;;;;;6.65;3.45;;;;;;;7.93;53.14;101884.25;5013201;28;20483;-65
2023/04/20 04:09:53;;;;;;;5.88;3.22;;;;;;;7.98;53.75;101877.41;5012966;28;20558;-66
2023/04/20 04:12:19;;;;;;;6.78;3.58;;;;;;;7.97;54.19;101886.16;5013485;28;20026;-65
2023/04/20 04:14:44;;;;;;;8.30;3.95;;;;;;;7.96;54.59;101877.31;5013069;28;20480;-64
2023/04/20 04:17:09;;;;;;;10.88;3.58;;;;;;;7.98;54.22;101874.78;5012715;28;20050;-65
2023/04/20 04:19:35;;;;;;;8.68;3.70;;;;;;;8.02;53.59;101879.31;5012703;28;20038;-65
2023/04/20 04:22:00;;;;;;;10.52;3.88;;;;;;;8.02;55.35;101876.69;4995545;28;20499;-65
2023/04/20 04:24:25;;;;;;;7.63;3.83;;;;;;;8.02;54.70;101866.16;5012817;28;20026;-66
2023/04/20 04:26:55;;;;;;;8.95;3.70;;;;;;;8.06;54.91;101860.16;5013096;28;20472;-66
2023/04/20 04:29:21;;;;;;;7.05;3.63;;;;;;;8.09;55.74;101849.72;4996247;28;20138;-65
2023/04/20 04:31:46;;;;;;;8.60;3.95;;;;;;;8.11;54.99;101845.44;5012847;28;20118;-65
2023/04/20 04:34:12;;;;;;;6.38;3.65;;;;;;;8.17;55.74;101842.13;5013068;28;20034;-65
2023/04/20 04:36:38;;;;;;;6.50;3.63;;;;;;;8.21;55.61;101844.91;5012836;28;20034;-66
2023/04/20 04:39:03;;;;;;;8.57;3.90;;;;;;;8.23;55.56;101840.63;5012918;28;20038;-66
2023/04/20 04:41:29;;;;;;;6.40;3.90;;;;;;;8.27;56.03;101834.63;5012963;28;20026;-65
2023/04/20 04:43:54;;;;;;;5.85;4.00;;;;;;;8.27;55.91;101831.09;5012994;28;20030;-66
2023/04/20 04:46:20;;;;;;;8.95;4.03;;;;;;;8.27;56.17;101829.34;4995302;28;20157;-65
2023/04/20 04:48:45;;;;;;;6.35;3.92;;;;;;;8.33;56.51;101827.78;5012684;28;20492;-66
2023/04/20 04:51:11;;;;;;;8.38;3.97;;;;;;;8.32;55.96;101828.63;5012847;28;20030;-66
2023/04/20 04:53:36;;;;;;;6.30;3.90;;;;;;;8.31;56.28;101837.34;5012868;28;20037;-66
2023/04/20 04:56:03;;;;;;;8.38;3.85;;;;;;;8.29;56.08;101829.41;4995469;28;20415;-64
2023/04/20 04:58:29;;;;;;;8.82;4.00;;;;;;;8.29;55.68;101819.75;5012948;28;20113;-66
2023/04/20 05:00:55;;;;;;;10.95;4.22;;;;;;;8.30;56.33;101820.66;5016257;28;20033;-65
2023/04/20 05:03:20;;;;;;;6.70;3.70;;;;;;;8.34;56.34;101826.94;5016674;28;20018;-65
2023/04/20 05:05:46;;;;;;;7.55;4.10;;;;;;;8.33;56.13;101831.31;5016794;28;20420;-65
2023/04/20 05:08:11;;;;;;;6.88;4.00;;;;;;;8.29;55.95;101824.13;5016611;28;20042;-66
2023/04/20 05:10:36;;;;;;;8.27;3.90;;;;;;;8.31;57.00;101821.53;5016547;28;20472;-66
2023/04/20 05:13:02;;;;;;;6.68;3.85;;;;;;;8.31;55.66;101817.19;4998744;28;20034;-66
2023/04/20 05:15:27;;;;;;;11.30;3.90;;;;;;;8.32;56.89;101820.72;5016096;28;20061;-66
2023/04/20 05:17:53;;;;;;;7.00;3.88;;;;;;;8.30;57.05;101825.91;5016157;28;20084;-66
2023/04/20 05:20:19;;;;;;;8.63;4.05;;;;;;;8.31;56.85;101811.00;5016491;28;20483;-66
2023/04/20 05:22:45;;;;;;;7.10;3.70;;;;;;;8.31;56.57;101821.53;5016331;28;20026;-66
2023/04/20 05:25:10;;;;;;;8.65;4.05;;;;;;;8.37;57.16;101819.19;5016193;28;20025;-66
2023/04/20 05:27:36;;;;;;;8.13;4.18;;;;;;;8.38;56.75;101826.22;5016105;28;20053;-65
2023/04/20 05:30:02;;;;;;;8.50;4.25;;;;;;;8.33;56.92;101823.41;5015994;28;20054;-66
2023/04/20 05:32:28;;;;;;;6.53;3.97;;;;;;;8.36;57.00;101825.25;5016413;28;20353;-64
2023/04/20 05:34:53;;;;;;;7.25;4.32;;;;;;;8.38;57.85;101823.59;5016101;28;20088;-65
2023/04/20 05:37:19;;;;;;;5.28;3.70;;;;;;;8.39;56.60;101826.28;5016255;28;20502;-67
2023/04/20 05:39:44;;;;;;;7.50;4.00;;;;;;;8.46;57.18;101816.88;5015909;28;20112;-65
2023/04/20 05:42:09;;;;;;;6.07;4.18;;;;;;;8.53;57.38;101816.25;5015945;28;20057;-65
2023/04/20 05:44:35;;;;;;;7.40;4.15;;;;;;;8.51;57.14;101804.75;5016067;28;20030;-67
2023/04/20 05:47:05;;;;;;;7.63;4.05;;;;;;;8.47;57.16;101805.47;5016030;28;20034;-64
2023/04/20 05:49:31;;;;;;;7.20;4.25;;;;;;;8.49;58.82;101811.72;5015762;28;20030;-67
2023/04/20 05:51:56;;;;;;;8.70;4.30;;;;;;;8.45;57.42;101804.53;5015892;28;20498;-67
2023/04/20 05:54:21;;;;;;;5.93;4.15;;;;;;;8.47;57.99;101808.13;5015806;28;20034;-64
2023/04/20 05:56:47;;;;;;;7.45;4.00;;;;;;;8.48;57.54;101809.94;5015669;28;20049;-65
2023/04/20 05:59:12;;;;;;;8.73;4.53;;;;;;;8.50;57.76;101814.38;4997911;28;20040;-65
2023/04/20 06:01:38;;;;;;;5.57;4.03;;;;;;;8.55;57.92;101811.91;5015510;28;20030;-64
2023/04/20 06:04:03;;;;;;;10.48;4.50;;;;;;;8.62;58.17;101806.03;5015455;28;20072;-64
2023/04/20 06:06:28;;;;;;;6.35;4.15;;;;;;;8.71;57.40;101810.72;5015483;28;20052;-66
2023/04/20 06:08:54;;;;;;;9.88;4.60;;;;;;;8.78;58.18;101813.59;5015377;28;20084;-64
2023/04/20 06:11:20;;;;;;;9.75;4.55;;;;;;;8.84;57.74;101798.84;4996974;28;20124;-65
2023/04/20 06:13:45;;;;;;;8.15;4.60;;;;;;;8.90;57.86;101807.81;5015240;28;20468;-65
2023/04/20 06:16:11;;;;;;;12.75;4.95;;;;;;;8.98;57.66;101810.72;5014953;28;20042;-65
2023/04/20 06:18:36;;;;;;;9.35;4.80;;;;;;;8.96;57.97;101802.78;5014919;28;20038;-66
2023/04/20 06:21:03;;;;;;;11.95;5.20;;;;;;;8.98;58.35;101802.81;4997582;28;20029;-65
2023/04/20 06:23:28;;;;;;;11.02;4.70;;;;;;;8.95;57.21;101795.72;5015169;28;20037;-66
2023/04/20 06:25:53;;;;;;;9.63;5.03;;;;;;;8.99;58.16;101794.97;5015412;28;20503;-65
2023/04/20 06:28:19;;;;;;;8.20;4.90;;;;;;;9.09;58.08;101788.25;5015265;28;20026;-67
2023/04/20 06:30:44;;;;;;;10.50;4.72;;;;;;;9.18;57.46;101799.06;5014996;28;20058;-66
2023/04/20 06:33:15;;;;;;;8.13;4.90;;;;;;;9.26;57.76;101796.69;4997653;28;20403;-67
2023/04/20 06:35:41;;;;;;;11.95;4.65;;;;;;;9.26;58.10;101799.31;5014836;28;20041;-66
2023/04/20 06:38:06;;;;;;;13.85;5.70;;;;;;;9.23;57.74;101794.84;5014834;28;20022;-65
2023/04/20 06:40:31;;;;;;;11.25;5.03;;;;;;;9.22;56.98;101790.41;5014869;28;20025;-67
2023/04/20 06:42:57;;;;;;;9.75;5.03;;;;;;;9.20;58.06;101780.66;5014828;28;20112;-67
2023/04/20 06:45:22;;;;;;;13.18;5.00;;;;;;;9.25;57.32;101779.09;5014862;28;20022;-67
2023/04/20 06:47:48;;;;;;;9.10;5.20;;;;;;;9.25;56.57;101787.00;5014425;28;20030;-65
2023/04/20 06:50:13;;;;;;;11.98;4.72;;;;;;;9.22;56.90;101778.97;5014638;28;20044;-67
2023/04/20 06:52:39;;;;;;;7.97;4.70;;;;;;;9.21;57.16;101798.28;5014764;28;20033;-67
2023/04/20 06:55:06;;;;;;;8.40;4.70;;;;;;;9.15;57.79;101785.78;5014799;28;20100;-65
2023/04/20 06:57:31;;;;;;;9.02;5.00;;;;;;;9.16;59.40;101777.03;5014634;28;20480;-66
2023/04/20 06:59:57;;;;;;;10.40;4.75;;;;;;;9.10;57.87;101776.84;5014313;28;20048;-67
2023/04/20 07:02:23;;;;;;;8.32;4.80;;;;;;;9.07;57.21;101786.38;5014453;28;20022;-66
2023/04/20 07:04:49;;;;;;;7.97;4.90;;;;;;;9.04;57.75;101803.03;5014489;28;20454;-66
2023/04/20 07:07:14;;;;;;;8.80;4.50;;;;;;;9.02;57.60;101783.59;5014435;28;20133;-66
2023/04/20 07:09:40;;;;;;;9.85;4.75;;;;;;;8.98;57.68;101793.16;5014304;28;20033;-66
2023/04/20 07:12:05;;;;;;;8.57;4.70;;;;;;;8.97;58.06;101786.09;5014222;28;20048;-66
2023/04/20 07:14:30;;;;;;;7.47;4.57;;;;;;;8.97;58.56;101794.00;5014176;28;20026;-65
2023/04/20 07:16:56;;;;;;;11.60;4.53;;;;;;;8.95;58.23;101789.50;5013698;28;20049;-67
2023/04/20 07:19:22;;;;;;;10.65;4.63;;;;;;;8.91;58.29;101793.81;5014149;28;20042;-65
2023/04/20 07:21:47;;;;;;;7.68;4.90;;;;;;;8.94;59.09;101786.00;4996426;28;20100;-65
2023/04/20 07:24:12;;;;;;;8.88;5.03;;;;;;;9.03;59.17;101786.28;5014261;28;20068;-66
2023/04/20 07:26:38;;;;;;;10.15;4.20;;;;;;;9.08;58.06;101786.47;5013918;28;20026;-66
2023/04/20 07:29:03;;;;;;;11.68;4.63;;;;;;;9.05;58.58;101791.63;5013802;28;20443;-66
2023/04/20 07:31:29;;;;;;;8.25;4.68;;;;;;;9.06;58.53;101795.16;5013775;28;20033;-67
2023/04/20 07:33:54;;;;;;;6.55;4.20;;;;;;;9.04;58.48;101789.84;5014099;28;20030;-66
2023/04/20 07:36:21;;;;;;;9.70;4.40;;;;;;;9.06;59.14;101777.59;5013821;28;20114;-65
2023/04/20 07:38:49;;;;;;;8.80;4.35;;;;;;;9.00;58.94;101788.84;4996410;28;20029;-66
2023/04/20 07:41:15;;;;;;;10.00;4.47;;;;;;;9.12;59.31;101777.81;5013458;28;20076;-66
2023/04/20 07:43:40;;;;;;;7.45;4.40;;;;;;;9.30;58.98;101782.75;5013406;28;20017;-65
2023/04/20 07:46:06;;;;;;;8.52;4.60;;;;;;;9.56;57.79;101778.25;5013503;28;20024;-67
2023/04/20 07:48:35;;;;;;;9.13;4.22;;;;;;;9.74;57.92;101777.91;5013405;28;20026;-67
2023/04/20 07:51:01;;;;;;;7.25;4.10;;;;;;;9.86;57.03;101790.56;4995988;28;20033;-67
2023/04/20 07:53:28;;;;;;;7.75;4.07;;;;;;;9.90;56.51;101793.34;5013566;28;20383;-68
2023/04/20 07:55:53;;;;;;;5.63;4.03;;;;;;;9.93;57.02;101793.41;5013604;28;20045;-66
2023/04/20 07:58:20;;;;;;;9.13;4.30;;;;;;;10.04;56.85;101793.72;5013237;28;20026;-66
2023/04/20 08:00:46;;;;;;;10.25;4.13;;;;;;;10.14;56.27;101786.94;5013231;28;20483;-66
2023/04/20 08:03:11;;;;;;;6.88;4.20;;;;;;;10.26;56.17;101788.22;5013320;28;20060;-68
2023/04/20 08:05:39;;;;;;;8.77;4.00;;;;;;;10.26;55.85;101785.56;5013319;28;20384;-66
2023/04/20 08:08:05;;;;;;;8.13;4.50;;;;;;;10.21;56.07;101780.97;5013166;28;20432;-66
2023/04/20 08:10:30;;;;;;;7.50;4.50;;;;;;;10.19;56.34;101780.03;5013231;28;20065;-66
2023/04/20 08:12:55;;;;;;;8.57;4.28;;;;;;;10.15;56.02;101787.00;5013170;28;20105;-65
2023/04/20 08:15:21;;;;;;;7.57;4.25;;;;;;;10.22;56.76;101778.38;5013208;28;20097;-67
2023/04/20 08:17:46;;;;;;;10.18;4.85;;;;;;;10.27;56.84;101781.16;5012922;28;20088;-66
2023/04/20 08:20:11;;;;;;;6.68;3.83;;;;;;;10.28;56.71;101769.78;5013184;28;20038;-67
2023/04/20 08:22:38;;;;;;;6.45;3.83;;;;;;;10.21;56.44;101779.22;5013201;28;20476;-66
2023/04/20 08:25:04;;;;;;;11.30;4.20;;;;;;;10.21;56.24;101773.06;5013299;28;20038;-67
2023/04/20 08:27:29;;;;;;;8.77;3.90;;;;;;;10.24;57.53;101766.16;5013103;28;20572;-65
2023/04/20 08:29:55;;;;;;;7.25;3.83;;;;;;;10.33;56.83;101765.50;5013016;28;20041;-65
2023/04/20 08:32:22;;;;;;;4.82;3.63;;;;;;;10.36;57.13;101762.91;5012898;28;20087;-66
2023/04/20 08:34:48;;;;;;;7.82;4.00;;;;;;;10.45;56.73;101741.16;5012502;28;20073;-67
2023/04/20 08:37:14;;;;;;;6.25;3.78;;;;;;;10.83;56.07;101749.13;5013014;28;20117;-66
2023/04/20 08:39:40;;;;;;;7.03;3.90;;;;;;;11.09;54.88;101749.72;5012898;28;20172;-67
2023/04/20 08:42:05;;;;;;;5.57;3.90;;;;;;;11.23;54.39;101749.22;5012823;28;20113;-67
2023/04/20 08:44:31;;;;;;;8.35;3.95;;;;;;;11.42;54.61;101731.97;5012657;28;20029;-67
2023/04/20 08:46:56;;;;;;;4.63;3.35;;;;;;;11.49;54.30;101743.59;5012920;28;20161;-67
2023/04/20 08:49:22;;;;;;;5.78;4.10;;;;;;;11.46;53.52;101740.88;5012606;28;20471;-64
2023/04/20 08:51:47;;;;;;;6.20;3.78;;;;;;;11.47;53.65;101738.25;5013042;28;20492;-65
2023/04/20 08:54:13;;;;;;;9.63;3.80;;;;;;;11.44;52.87;101739.97;5012809;28;20041;-66
2023/04/20 08:56:44;;;;;;;5.28;3.80;;;;;;;11.43;53.79;101735.50;5012738;28;20022;-67
2023/04/20 08:59:11;;;;;;;6.80;4.38;;;;;;;11.30;53.76;101726.41;5012833;28;20410;-66
2023/04/20 09:01:40;;;;;;;7.97;3.97;;;;;;;11.33;53.92;101733.53;5012324;28;20104;-65
2023/04/20 09:04:25;;;;;;;5.88;3.50;;;;;;;11.36;52.81;101730.97;5012898;28;20018;-66
2023/04/20 09:06:55;;;;;;;9.85;3.80;;;;;;;11.36;53.22;101733.59;5012904;28;20044;-65
2023/04/20 09:09:22;;;;;;;5.85;3.40;;;;;;;11.25;53.62;101728.94;5012982;28;20026;-68
2023/04/20 09:12:05;;;;;;;7.45;3.53;;;;;;;11.27;53.53;101721.97;5012672;28;20025;-68
2023/04/20 09:14:42;;;;;;;6.05;3.60;;;;;;;11.14;53.82;101733.13;5012624;28;20030;-69
2023/04/20 09:17:07;;;;;;;6.20;3.80;;;;;;;10.96;54.29;101744.19;5012408;28;20050;-68
2023/04/20 09:19:33;;;;;;;5.85;3.72;;;;;;;10.87;54.89;101736.00;5011870;28;20053;-67
2023/04/20 09:22:02;;;;;;;5.85;3.67;;;;;;;10.88;54.95;101732.53;4995033;28;20022;-65
2023/04/20 09:24:36;;;;;;;6.65;3.83;;;;;;;10.97;54.59;101731.84;5012262;28;20036;-66
2023/04/20 09:27:22;;;;;;;8.23;3.55;;;;;;;11.06;54.42;101725.88;5012405;28;20033;-67
2023/04/20 09:30:02;;;;;;;8.00;4.03;;;;;;;11.12;54.07;101728.66;5011910;28;20037;-67
2023/04/20 09:32:28;;;;;;;5.97;3.58;;;;;;;11.09;53.31;101733.88;5012429;28;20030;-70
2023/04/20 09:34:54;;;;;;;5.78;3.78;;;;;;;11.05;54.27;101719.69;5012482;28;20511;-69
2023/04/20 09:37:21;;;;;;;11.68;3.88;;;;;;;10.96;54.34;101732.69;5012215;28;20110;-67
2023/04/20 09:39:47;;;;;;;8.60;3.85;;;;;;;10.91;54.29;101718.47;5012341;28;20559;-70
2023/04/20 09:42:14;;;;;;;7.03;3.75;;;;;;;10.80;54.91;101726.16;4994804;28;20125;-66
2023/04/20 09:44:40;;;;;;;5.57;4.00;;;;;;;10.80;55.36;101730.56;5012225;28;20472;-67
2023/04/20 09:47:07;;;;;;;5.97;3.63;;;;;;;10.78;54.45;101727.84;5014310;28;20049;-67
2023/04/20 09:49:33;;;;;;;5.75;3.72;;;;;;;10.85;54.27;101728.91;5015945;28;20095;-67
2023/04/20 09:52:03;;;;;;;6.88;3.90;;;;;;;10.93;54.51;101716.78;5015747;28;20025;-69
2023/04/20 09:54:28;;;;;;;5.60;3.83;;;;;;;11.05;54.18;101711.78;5015734;28;20065;-68
2023/04/20 09:56:55;;;;;;;5.97;3.83;;;;;;;10.98;53.12;101705.44;5015725;28;20037;-68
2023/04/20 09:59:21;;;;;;;5.63;3.55;;;;;;;11.12;53.85;101703.09;5017842;28;20030;-65
2023/04/20 10:01:46;;;;;;;5.00;3.65;;;;;;;11.35;53.37;101702.69;5024128;28;20029;-65
2023/04/20 10:04:13;;;;;;;7.45;3.72;;;;;;;11.59;53.96;101699.66;5017346;28;20034;-67
2023/04/20 10:06:50;;;;;;;6.97;3.80;;;;;;;11.72;52.30;101696.41;5015625;28;20037;-66
2023/04/20 10:09:27;;;;;;;4.88;3.53;;;;;;;11.72;52.45;101696.41;5015434;28;20542;-66
2023/04/20 10:11:52;;;;;;;5.10;3.60;;;;;;;11.76;52.08;101699.13;5015451;28;20030;-66
2023/04/20 10:14:21;;;;;;;5.18;3.80;;;;;;;11.78;52.57;101693.91;5015588;28;20413;-67
2023/04/20 10:17:16;;;;;;;6.50;4.20;;;;;;;11.80;52.90;101697.44;5015105;28;20096;-66
2023/04/20 10:19:43;;;;;;;7.13;4.20;;;;;;;11.59;53.11;101699.66;4984313;28;20030;-67
2023/04/20 10:22:11;;;;;;;8.75;4.13;;;;;;;11.48;53.47;101699.47;5017114;28;20022;-66
2023/04/20 10:24:37;;;;;;;6.10;3.85;;;;;;;11.42;54.31;101692.28;5021217;28;20463;-66
2023/04/20 10:27:04;;;;;;;5.10;3.75;;;;;;;11.44;54.06;101689.69;5019020;28;20030;-66
2023/04/20 10:29:32;;;;;;;7.50;4.10;;;;;;;11.47;53.24;101698.53;5018404;28;20045;-66
2023/04/20 10:31:58;;;;;;;5.88;3.88;;;;;;;11.60;53.58;101690.88;5015464;28;20036;-67
2023/04/20 10:34:34;;;;;;;9.40;4.43;;;;;;;11.63;53.35;101683.88;5015243;28;20033;-67
2023/04/20 10:37:07;;;;;;;6.78;4.03;;;;;;;11.78;52.85;101678.91;5015497;28;20018;-67
2023/04/20 10:39:33;;;;;;;7.53;3.72;;;;;;;11.84;52.38;101672.84;5015012;28;20396;-66
2023/04/20 10:42:00;;;;;;;5.97;3.50;;;;;;;11.91;51.81;101672.09;4997278;28;20022;-67
2023/04/20 10:44:26;;;;;;;7.03;4.50;;;;;;;11.97;52.00;101679.25;5015017;28;20057;-66
2023/04/20 10:46:51;;;;;;;8.48;4.53;;;;;;;12.09;52.03;101668.91;5014911;28;20490;-67
2023/04/20 10:49:17;;;;;;;6.10;4.15;;;;;;;12.47;51.87;101656.28;5014269;28;20030;-67
2023/04/20 10:51:49;;;;;;;6.97;4.15;;;;;;;12.89;51.45;101649.84;5014849;28;20022;-66
2023/04/20 10:54:15;;;;;;;;;;;;;;;13.26;50.32;101660.97;5015077;28;20037;-67
2023/04/20 10:56:46;;;;;;;7.57;4.30;;;;;;;13.19;49.31;101670.59;5014078;28;19913;-68
2023/04/20 10:59:17;;;;;;;11.32;4.32;;;;;;;12.82;50.52;101671.84;5014567;28;20074;-67
2023/04/20 11:01:43;;;;;;;5.40;4.20;;;;;;;12.69;51.24;101672.53;5014262;28;20037;-67
2023/04/20 11:04:13;;;;;;;6.70;4.22;;;;;;;12.56;51.53;101668.78;5014450;28;20080;-66
2023/04/20 11:06:40;;;;;;;6.13;4.10;;;;;;;12.45;50.62;101667.72;5014388;28;20076;-68
2023/04/20 11:09:17;;;;;;;8.18;4.63;;;;;;;12.33;51.79;101652.50;5014692;28;20038;-67
2023/04/20 11:11:43;;;;;;;12.57;4.30;;;;;;;12.27;52.01;101660.38;5014343;28;20080;-67
2023/04/20 11:14:10;;;;;;;6.32;4.47;;;;;;;12.26;52.41;101655.94;4996838;28;20026;-67
2023/04/20 11:16:37;;;;;;;9.00;4.40;;;;;;;12.15;52.47;101658.38;5013916;28;20377;-67
2023/04/20 11:19:03;;;;;;;6.15;4.63;;;;;;;12.31;52.93;101653.38;5013927;28;20084;-66
2023/04/20 11:21:39;;;;;;;8.07;4.78;;;;;;;12.44;52.13;101647.41;5014055;28;20396;-68
2023/04/20 11:24:20;;;;;;;6.72;4.50;;;;;;;12.49;51.31;101646.59;5014215;28;20034;-68
2023/04/20 11:26:49;;;;;;;8.00;4.55;;;;;;;12.42;51.12;101638.50;5013906;28;20057;-67